sensor_id;sensor_type;location;lat;lon;timestamp;temperature;humidity
55121;DHT22;41019;48.512;9.036;2023-08-07T00:02:14;13.50;95.80
55121;DHT22;41019;48.512;9.036;2023-08-07T00:04:39;13.50;95.80
55121;DHT22;41019;48.512;9.036;2023-08-07T00:07:05;13.40;95.60
55121;DHT22;41019;48.512;9.036;2023-08-07T00:09:31;13.40;95.70
55121;DHT22;41019;48.512;9.036;2023-08-07T00:11:57;13.50;95.50
55121;DHT22;41019;48.512;9.036;2023-08-07T00:14:23;13.50;95.50
55121;DHT22;41019;48.512;9.036;2023-08-07T00:16:49;13.50;95.60
55121;DHT22;41019;48.512;9.036;2023-08-07T00:19:15;13.50;95.60
55121;DHT22;41019;48.512;9.036;2023-08-07T00:21:41;13.50;95.60
55121;DHT22;41019;48.512;9.036;2023-08-07T00:24:07;13.50;95.80
55121;DHT22;41019;48.512;9.036;2023-08-07T00:26:33;13.40;95.70
55121;DHT22;41019;48.512;9.036;2023-08-07T00:28:59;13.40;95.60
55121;DHT22;41019;48.512;9.036;2023-08-07T00:31:25;13.40;95.60
55121;DHT22;41019;48.512;9.036;2023-08-07T00:33:52;13.30;95.80
55121;DHT22;41019;48.512;9.036;2023-08-07T00:36:20;13.40;95.70
55121;DHT22;41019;48.512;9.036;2023-08-07T00:38:45;13.40;95.80
55121;DHT22;41019;48.512;9.036;2023-08-07T00:41:11;13.30;95.90
55121;DHT22;41019;48.512;9.036;2023-08-07T00:43:37;13.40;95.70
55121;DHT22;41019;48.512;9.036;2023-08-07T00:46:03;13.40;95.70
55121;DHT22;41019;48.512;9.036;2023-08-07T00:48:29;13.30;96.00
55121;DHT22;41019;48.512;9.036;2023-08-07T00:50:56;13.30;95.90
55121;DHT22;41019;48.512;9.036;2023-08-07T00:53:23;13.30;96.00
55121;DHT22;41019;48.512;9.036;2023-08-07T00:55:49;13.20;96.00
55121;DHT22;41019;48.512;9.036;2023-08-07T00:58:15;13.30;95.80
55121;DHT22;41019;48.512;9.036;2023-08-07T01:00:41;13.30;95.90
55121;DHT22;41019;48.512;9.036;2023-08-07T01:03:08;13.30;95.90
55121;DHT22;41019;48.512;9.036;2023-08-07T01:05:37;13.30;95.70
55121;DHT22;41019;48.512;9.036;2023-08-07T01:08:03;13.30;95.90
55121;DHT22;41019;48.512;9.036;2023-08-07T01:11:07;13.30;95.70
55121;DHT22;41019;48.512;9.036;2023-08-07T01:13:54;13.30;95.80
55121;DHT22;41019;48.512;9.036;2023-08-07T01:19:02;13.20;95.80
55121;DHT22;41019;48.512;9.036;2023-08-07T01:21:29;13.20;95.90
55121;DHT22;41019;48.512;9.036;2023-08-07T01:23:55;13.20;95.80
55121;DHT22;41019;48.512;9.036;2023-08-07T01:26:21;13.20;95.80
55121;DHT22;41019;48.512;9.036;2023-08-07T01:29:01;13.20;95.70
55121;DHT22;41019;48.512;9.036;2023-08-07T01:31:34;13.20;95.80
55121;DHT22;41019;48.512;9.036;2023-08-07T01:34:05;13.10;96.00
55121;DHT22;41019;48.512;9.036;2023-08-07T01:36:32;13.10;95.90
55121;DHT22;41019;48.512;9.036;2023-08-07T01:39:01;13.10;96.20
55121;DHT22;41019;48.512;9.036;2023-08-07T01:41:29;13.10;96.40
55121;DHT22;41019;48.512;9.036;2023-08-07T01:43:55;13.10;96.10
55121;DHT22;41019;48.512;9.036;2023-08-07T01:46:22;13.10;96.10
55121;DHT22;41019;48.512;9.036;2023-08-07T01:48:48;13.00;96.10
55121;DHT22;41019;48.512;9.036;2023-08-07T01:51:15;13.00;96.20
55121;DHT22;41019;48.512;9.036;2023-08-07T01:53:41;13.00;96.30
55121;DHT22;41019;48.512;9.036;2023-08-07T01:56:07;12.90;96.30
55121;DHT22;41019;48.512;9.036;2023-08-07T01:58:32;13.00;96.30
55121;DHT22;41019;48.512;9.036;2023-08-07T02:00:58;13.00;96.20
55121;DHT22;41019;48.512;9.036;2023-08-07T02:03:24;12.90;96.40
55121;DHT22;41019;48.512;9.036;2023-08-07T02:05:50;12.90;96.30
55121;DHT22;41019;48.512;9.036;2023-08-07T02:08:16;12.90;96.30
55121;DHT22;41019;48.512;9.036;2023-08-07T02:10:42;12.90;96.10
55121;DHT22;41019;48.512;9.036;2023-08-07T02:13:08;12.90;96.20
55121;DHT22;41019;48.512;9.036;2023-08-07T02:15:34;12.90;96.20
55121;DHT22;41019;48.512;9.036;2023-08-07T02:18:01;12.90;96.10
55121;DHT22;41019;48.512;9.036;2023-08-07T02:20:27;12.90;96.40
55121;DHT22;41019;48.512;9.036;2023-08-07T02:22:53;12.90;96.20
55121;DHT22;41019;48.512;9.036;2023-08-07T02:25:19;12.90;96.00
55121;DHT22;41019;48.512;9.036;2023-08-07T02:27:44;13.00;96.00
55121;DHT22;41019;48.512;9.036;2023-08-07T02:30:11;13.00;96.00
55121;DHT22;41019;48.512;9.036;2023-08-07T02:32:37;13.00;95.70
55121;DHT22;41019;48.512;9.036;2023-08-07T02:35:03;13.00;95.80
55121;DHT22;41019;48.512;9.036;2023-08-07T02:37:29;13.00;95.70
55121;DHT22;41019;48.512;9.036;2023-08-07T02:39:54;13.00;95.60
55121;DHT22;41019;48.512;9.036;2023-08-07T02:42:21;13.00;95.80
55121;DHT22;41019;48.512;9.036;2023-08-07T02:44:47;13.00;95.60
55121;DHT22;41019;48.512;9.036;2023-08-07T02:47:12;13.00;95.40
55121;DHT22;41019;48.512;9.036;2023-08-07T02:49:38;13.00;95.40
55121;DHT22;41019;48.512;9.036;2023-08-07T02:52:04;13.00;95.40
55121;DHT22;41019;48.512;9.036;2023-08-07T02:54:30;13.10;95.00
55121;DHT22;41019;48.512;9.036;2023-08-07T02:56:57;13.00;95.10
55121;DHT22;41019;48.512;9.036;2023-08-07T02:59:22;13.00;95.30
55121;DHT22;41019;48.512;9.036;2023-08-07T03:01:50;13.10;95.00
55121;DHT22;41019;48.512;9.036;2023-08-07T03:04:16;13.10;95.30
55121;DHT22;41019;48.512;9.036;2023-08-07T03:06:42;13.10;94.90
55121;DHT22;41019;48.512;9.036;2023-08-07T03:09:07;13.10;95.00
55121;DHT22;41019;48.512;9.036;2023-08-07T03:11:33;13.10;94.80
55121;DHT22;41019;48.512;9.036;2023-08-07T03:13:59;13.10;94.80
55121;DHT22;41019;48.512;9.036;2023-08-07T03:16:25;13.10;94.90
55121;DHT22;41019;48.512;9.036;2023-08-07T03:18:51;13.00;95.00
55121;DHT22;41019;48.512;9.036;2023-08-07T03:21:17;13.00;94.70
55121;DHT22;41019;48.512;9.036;2023-08-07T03:23:43;13.00;94.70
55121;DHT22;41019;48.512;9.036;2023-08-07T03:26:11;13.00;94.80
55121;DHT22;41019;48.512;9.036;2023-08-07T03:28:38;13.00;94.70
55121;DHT22;41019;48.512;9.036;2023-08-07T03:31:05;12.90;94.60
55121;DHT22;41019;48.512;9.036;2023-08-07T03:33:32;12.90;94.60
55121;DHT22;41019;48.512;9.036;2023-08-07T03:35:58;12.90;94.60
55121;DHT22;41019;48.512;9.036;2023-08-07T03:38:24;12.90;94.80
55121;DHT22;41019;48.512;9.036;2023-08-07T03:40:53;12.90;94.70
55121;DHT22;41019;48.512;9.036;2023-08-07T03:43:19;12.80;94.50
55121;DHT22;41019;48.512;9.036;2023-08-07T03:45:45;12.80;94.70
55121;DHT22;41019;48.512;9.036;2023-08-07T03:48:10;12.80;94.40
55121;DHT22;41019;48.512;9.036;2023-08-07T03:50:36;12.80;94.40
55121;DHT22;41019;48.512;9.036;2023-08-07T03:53:06;12.80;94.40
55121;DHT22;41019;48.512;9.036;2023-08-07T03:55:36;12.70;94.70
55121;DHT22;41019;48.512;9.036;2023-08-07T03:58:02;12.70;94.60
55121;DHT22;41019;48.512;9.036;2023-08-07T04:00:28;12.70;94.50
55121;DHT22;41019;48.512;9.036;2023-08-07T04:02:54;12.70;94.90
55121;DHT22;41019;48.512;9.036;2023-08-07T04:05:21;12.70;94.60
55121;DHT22;41019;48.512;9.036;2023-08-07T04:07:46;12.60;94.80
55121;DHT22;41019;48.512;9.036;2023-08-07T04:10:12;12.60;94.70
55121;DHT22;41019;48.512;9.036;2023-08-07T04:12:38;12.60;94.70
55121;DHT22;41019;48.512;9.036;2023-08-07T04:15:04;12.60;94.70
55121;DHT22;41019;48.512;9.036;2023-08-07T04:17:30;12.60;94.70
55121;DHT22;41019;48.512;9.036;2023-08-07T04:19:56;12.50;94.90
55121;DHT22;41019;48.512;9.036;2023-08-07T04:22:22;12.50;94.80
55121;DHT22;41019;48.512;9.036;2023-08-07T04:24:48;12.50;94.90
55121;DHT22;41019;48.512;9.036;2023-08-07T04:27:14;12.50;94.80
55121;DHT22;41019;48.512;9.036;2023-08-07T04:29:39;12.50;94.90
55121;DHT22;41019;48.512;9.036;2023-08-07T04:32:06;12.50;95.00
55121;DHT22;41019;48.512;9.036;2023-08-07T04:34:32;12.50;95.00
55121;DHT22;41019;48.512;9.036;2023-08-07T04:36:57;12.50;95.00
55121;DHT22;41019;48.512;9.036;2023-08-07T04:39:23;12.50;94.90
55121;DHT22;41019;48.512;9.036;2023-08-07T04:41:49;12.40;95.00
55121;DHT22;41019;48.512;9.036;2023-08-07T04:44:16;12.40;95.30
55121;DHT22;41019;48.512;9.036;2023-08-07T04:46:42;12.40;95.30
55121;DHT22;41019;48.512;9.036;2023-08-07T04:49:08;12.40;95.30
55121;DHT22;41019;48.512;9.036;2023-08-07T04:51:33;12.40;95.40
55121;DHT22;41019;48.512;9.036;2023-08-07T04:53:59;12.40;95.50
55121;DHT22;41019;48.512;9.036;2023-08-07T04:56:25;12.40;95.40
55121;DHT22;41019;48.512;9.036;2023-08-07T04:58:51;12.50;95.30
55121;DHT22;41019;48.512;9.036;2023-08-07T05:01:17;12.40;95.40
55121;DHT22;41019;48.512;9.036;2023-08-07T05:03:42;12.50;95.50
55121;DHT22;41019;48.512;9.036;2023-08-07T05:06:08;12.50;95.30
55121;DHT22;41019;48.512;9.036;2023-08-07T05:08:34;12.50;95.50
55121;DHT22;41019;48.512;9.036;2023-08-07T05:11:00;12.50;95.60
55121;DHT22;41019;48.512;9.036;2023-08-07T05:13:26;12.60;95.30
55121;DHT22;41019;48.512;9.036;2023-08-07T05:15:52;12.60;95.20
55121;DHT22;41019;48.512;9.036;2023-08-07T05:18:18;12.60;95.20
55121;DHT22;41019;48.512;9.036;2023-08-07T05:20:43;12.70;95.10
55121;DHT22;41019;48.512;9.036;2023-08-07T05:23:09;12.70;95.40
55121;DHT22;41019;48.512;9.036;2023-08-07T05:25:36;12.80;95.40
55121;DHT22;41019;48.512;9.036;2023-08-07T05:28:03;12.90;95.40
55121;DHT22;41019;48.512;9.036;2023-08-07T05:30:29;13.00;94.90
55121;DHT22;41019;48.512;9.036;2023-08-07T05:32:54;13.00;95.10
55121;DHT22;41019;48.512;9.036;2023-08-07T05:35:20;13.00;95.20
55121;DHT22;41019;48.512;9.036;2023-08-07T05:37:46;13.10;95.00
55121;DHT22;41019;48.512;9.036;2023-08-07T05:40:12;13.20;94.60
55121;DHT22;41019;48.512;9.036;2023-08-07T05:42:38;13.20;94.60
55121;DHT22;41019;48.512;9.036;2023-08-07T05:45:04;13.30;94.80
55121;DHT22;41019;48.512;9.036;2023-08-07T05:47:31;13.30;94.80
55121;DHT22;41019;48.512;9.036;2023-08-07T05:49:57;13.40;94.80
55121;DHT22;41019;48.512;9.036;2023-08-07T05:52:23;13.60;94.70
55121;DHT22;41019;48.512;9.036;2023-08-07T05:54:49;13.60;94.40
55121;DHT22;41019;48.512;9.036;2023-08-07T05:57:15;13.60;94.40
55121;DHT22;41019;48.512;9.036;2023-08-07T05:59:41;13.70;94.80
55121;DHT22;41019;48.512;9.036;2023-08-07T06:02:07;13.70;94.60
55121;DHT22;41019;48.512;9.036;2023-08-07T06:04:33;13.70;94.40
55121;DHT22;41019;48.512;9.036;2023-08-07T06:06:58;13.70;94.60
55121;DHT22;41019;48.512;9.036;2023-08-07T06:09:24;13.70;94.40
55121;DHT22;41019;48.512;9.036;2023-08-07T06:11:50;13.70;94.40
55121;DHT22;41019;48.512;9.036;2023-08-07T06:14:16;13.70;94.40
55121;DHT22;41019;48.512;9.036;2023-08-07T06:16:41;13.70;94.50
55121;DHT22;41019;48.512;9.036;2023-08-07T06:19:07;13.70;94.70
55121;DHT22;41019;48.512;9.036;2023-08-07T06:21:34;13.80;94.60
55121;DHT22;41019;48.512;9.036;2023-08-07T06:24:00;13.80;94.70
55121;DHT22;41019;48.512;9.036;2023-08-07T06:26:25;13.80;94.80
55121;DHT22;41019;48.512;9.036;2023-08-07T06:28:51;13.80;94.80
55121;DHT22;41019;48.512;9.036;2023-08-07T06:31:18;13.80;94.80
55121;DHT22;41019;48.512;9.036;2023-08-07T06:33:44;13.90;95.00
55121;DHT22;41019;48.512;9.036;2023-08-07T06:36:10;13.90;94.80
55121;DHT22;41019;48.512;9.036;2023-08-07T06:38:35;14.00;94.80
55121;DHT22;41019;48.512;9.036;2023-08-07T06:41:02;14.00;95.00
55121;DHT22;41019;48.512;9.036;2023-08-07T06:43:28;14.20;94.80
55121;DHT22;41019;48.512;9.036;2023-08-07T06:45:55;14.20;94.80
55121;DHT22;41019;48.512;9.036;2023-08-07T06:48:21;14.30;94.70
55121;DHT22;41019;48.512;9.036;2023-08-07T06:50:48;14.40;94.60
55121;DHT22;41019;48.512;9.036;2023-08-07T06:53:14;14.40;94.40
55121;DHT22;41019;48.512;9.036;2023-08-07T06:55:43;14.50;94.40
55121;DHT22;41019;48.512;9.036;2023-08-07T06:58:10;14.60;94.50
55121;DHT22;41019;48.512;9.036;2023-08-07T07:00:36;14.60;94.00
55121;DHT22;41019;48.512;9.036;2023-08-07T07:03:04;14.70;93.80
55121;DHT22;41019;48.512;9.036;2023-08-07T07:05:30;14.80;93.60
55121;DHT22;41019;48.512;9.036;2023-08-07T07:07:57;14.80;93.90
55121;DHT22;41019;48.512;9.036;2023-08-07T07:10:24;15.00;94.00
55121;DHT22;41019;48.512;9.036;2023-08-07T07:12:50;15.10;93.90
55121;DHT22;41019;48.512;9.036;2023-08-07T07:15:15;15.30;93.60
55121;DHT22;41019;48.512;9.036;2023-08-07T07:17:42;15.40;92.90
55121;DHT22;41019;48.512;9.036;2023-08-07T07:20:08;15.50;92.40
55121;DHT22;41019;48.512;9.036;2023-08-07T07:22:37;15.50;92.70
55121;DHT22;41019;48.512;9.036;2023-08-07T07:25:04;15.60;92.70
55121;DHT22;41019;48.512;9.036;2023-08-07T07:27:30;15.70;92.40
55121;DHT22;41019;48.512;9.036;2023-08-07T07:29:55;15.70;92.60
55121;DHT22;41019;48.512;9.036;2023-08-07T07:32:21;15.70;92.40
55121;DHT22;41019;48.512;9.036;2023-08-07T07:34:47;15.80;91.60
55121;DHT22;41019;48.512;9.036;2023-08-07T07:37:13;15.90;91.20
55121;DHT22;41019;48.512;9.036;2023-08-07T07:39:40;15.90;91.30
55121;DHT22;41019;48.512;9.036;2023-08-07T07:42:07;16.00;90.30
55121;DHT22;41019;48.512;9.036;2023-08-07T07:44:33;16.20;90.10
55121;DHT22;41019;48.512;9.036;2023-08-07T07:47:02;16.30;89.90
55121;DHT22;41019;48.512;9.036;2023-08-07T07:49:28;16.40;89.30
55121;DHT22;41019;48.512;9.036;2023-08-07T07:51:53;16.60;89.10
55121;DHT22;41019;48.512;9.036;2023-08-07T07:54:20;16.70;87.00
55121;DHT22;41019;48.512;9.036;2023-08-07T07:56:46;16.90;87.20
55121;DHT22;41019;48.512;9.036;2023-08-07T07:59:12;17.00;87.80
55121;DHT22;41019;48.512;9.036;2023-08-07T08:01:39;17.20;87.10
55121;DHT22;41019;48.512;9.036;2023-08-07T08:04:04;17.30;85.80
55121;DHT22;41019;48.512;9.036;2023-08-07T08:06:30;17.40;84.90
55121;DHT22;41019;48.512;9.036;2023-08-07T08:08:56;17.60;85.30
55121;DHT22;41019;48.512;9.036;2023-08-07T08:11:22;17.80;83.30
55121;DHT22;41019;48.512;9.036;2023-08-07T08:13:48;17.90;82.90
55121;DHT22;41019;48.512;9.036;2023-08-07T08:16:15;18.20;86.40
55121;DHT22;41019;48.512;9.036;2023-08-07T08:18:40;18.40;82.30
55121;DHT22;41019;48.512;9.036;2023-08-07T08:21:07;18.60;82.70
55121;DHT22;41019;48.512;9.036;2023-08-07T08:23:33;18.90;81.10
55121;DHT22;41019;48.512;9.036;2023-08-07T08:25:59;19.10;80.10
55121;DHT22;41019;48.512;9.036;2023-08-07T08:28:24;19.20;78.40
55121;DHT22;41019;48.512;9.036;2023-08-07T08:30:50;19.20;77.90
55121;DHT22;41019;48.512;9.036;2023-08-07T08:33:16;19.20;77.00
55121;DHT22;41019;48.512;9.036;2023-08-07T08:35:43;19.10;76.30
55121;DHT22;41019;48.512;9.036;2023-08-07T08:38:09;19.20;76.50
55121;DHT22;41019;48.512;9.036;2023-08-07T08:40:38;19.30;75.10
55121;DHT22;41019;48.512;9.036;2023-08-07T08:43:05;19.50;74.90
55121;DHT22;41019;48.512;9.036;2023-08-07T08:45:32;19.50;74.90
55121;DHT22;41019;48.512;9.036;2023-08-07T08:48:02;19.70;74.50
55121;DHT22;41019;48.512;9.036;2023-08-07T08:50:30;19.80;74.50
55121;DHT22;41019;48.512;9.036;2023-08-07T08:52:57;20.10;73.10
55121;DHT22;41019;48.512;9.036;2023-08-07T08:55:23;20.30;71.60
55121;DHT22;41019;48.512;9.036;2023-08-07T08:57:50;20.50;71.40
55121;DHT22;41019;48.512;9.036;2023-08-07T09:00:16;20.70;71.40
55121;DHT22;41019;48.512;9.036;2023-08-07T09:02:50;20.80;69.80
55121;DHT22;41019;48.512;9.036;2023-08-07T09:05:18;20.90;69.60
55121;DHT22;41019;48.512;9.036;2023-08-07T09:07:49;21.00;70.90
55121;DHT22;41019;48.512;9.036;2023-08-07T09:10:16;21.20;69.60
55121;DHT22;41019;48.512;9.036;2023-08-07T09:13:00;21.20;68.50
55121;DHT22;41019;48.512;9.036;2023-08-07T09:15:29;21.40;69.40
55121;DHT22;41019;48.512;9.036;2023-08-07T09:17:58;21.60;67.00
55121;DHT22;41019;48.512;9.036;2023-08-07T09:20:25;21.70;69.30
55121;DHT22;41019;48.512;9.036;2023-08-07T09:22:51;21.80;65.00
55121;DHT22;41019;48.512;9.036;2023-08-07T09:25:43;22.00;64.80
55121;DHT22;41019;48.512;9.036;2023-08-07T09:28:11;22.20;64.70
55121;DHT22;41019;48.512;9.036;2023-08-07T09:30:37;22.10;64.20
55121;DHT22;41019;48.512;9.036;2023-08-07T09:33:04;22.20;63.20
55121;DHT22;41019;48.512;9.036;2023-08-07T09:35:31;22.10;63.90
55121;DHT22;41019;48.512;9.036;2023-08-07T09:37:58;22.00;63.30
55121;DHT22;41019;48.512;9.036;2023-08-07T09:40:24;21.80;63.70
55121;DHT22;41019;48.512;9.036;2023-08-07T09:42:52;21.70;64.40
55121;DHT22;41019;48.512;9.036;2023-08-07T09:45:26;21.80;64.20
55121;DHT22;41019;48.512;9.036;2023-08-07T09:48:00;22.00;64.30
55121;DHT22;41019;48.512;9.036;2023-08-07T09:50:27;22.10;63.20
55121;DHT22;41019;48.512;9.036;2023-08-07T09:52:53;22.00;62.90
55121;DHT22;41019;48.512;9.036;2023-08-07T09:55:20;22.10;63.90
55121;DHT22;41019;48.512;9.036;2023-08-07T09:57:47;21.90;62.20
55121;DHT22;41019;48.512;9.036;2023-08-07T10:00:14;22.00;63.10
55121;DHT22;41019;48.512;9.036;2023-08-07T10:02:48;22.10;60.90
55121;DHT22;41019;48.512;9.036;2023-08-07T10:05:15;21.90;62.60
55121;DHT22;41019;48.512;9.036;2023-08-07T10:07:43;21.90;63.00
55121;DHT22;41019;48.512;9.036;2023-08-07T10:10:10;22.00;64.10
55121;DHT22;41019;48.512;9.036;2023-08-07T10:12:37;22.20;63.00
55121;DHT22;41019;48.512;9.036;2023-08-07T10:15:04;22.30;63.80
55121;DHT22;41019;48.512;9.036;2023-08-07T10:17:32;22.60;62.60
55121;DHT22;41019;48.512;9.036;2023-08-07T10:19:58;22.80;62.20
55121;DHT22;41019;48.512;9.036;2023-08-07T10:22:26;23.00;61.90
55121;DHT22;41019;48.512;9.036;2023-08-07T10:24:53;22.90;60.10
55121;DHT22;41019;48.512;9.036;2023-08-07T10:27:23;22.80;59.40
55121;DHT22;41019;48.512;9.036;2023-08-07T10:29:52;22.50;61.10
55121;DHT22;41019;48.512;9.036;2023-08-07T10:32:20;22.50;59.40
55121;DHT22;41019;48.512;9.036;2023-08-07T10:34:50;22.40;60.80
55121;DHT22;41019;48.512;9.036;2023-08-07T10:37:38;22.50;60.30
55121;DHT22;41019;48.512;9.036;2023-08-07T10:40:05;22.30;59.70
55121;DHT22;41019;48.512;9.036;2023-08-07T10:45:34;21.90;60.50
55121;DHT22;41019;48.512;9.036;2023-08-07T10:48:17;21.70;60.20
55121;DHT22;41019;48.512;9.036;2023-08-07T10:50:50;21.70;60.60
55121;DHT22;41019;48.512;9.036;2023-08-07T10:53:37;21.70;60.80
55121;DHT22;41019;48.512;9.036;2023-08-07T10:56:18;21.60;61.00
55121;DHT22;41019;48.512;9.036;2023-08-07T10:58:50;21.50;61.10
55121;DHT22;41019;48.512;9.036;2023-08-07T11:03:59;21.40;60.70
55121;DHT22;41019;48.512;9.036;2023-08-07T11:06:30;21.40;61.70
55121;DHT22;41019;48.512;9.036;2023-08-07T11:09:00;21.40;61.10
55121;DHT22;41019;48.512;9.036;2023-08-07T11:11:39;21.60;62.00
55121;DHT22;41019;48.512;9.036;2023-08-07T11:14:06;21.80;60.90
55121;DHT22;41019;48.512;9.036;2023-08-07T11:16:34;21.90;61.50
55121;DHT22;41019;48.512;9.036;2023-08-07T11:19:00;21.90;61.20
55121;DHT22;41019;48.512;9.036;2023-08-07T11:21:26;21.90;61.10
55121;DHT22;41019;48.512;9.036;2023-08-07T11:23:52;21.80;60.40
55121;DHT22;41019;48.512;9.036;2023-08-07T11:26:18;21.60;61.10
55121;DHT22;41019;48.512;9.036;2023-08-07T11:28:48;21.40;60.20
55121;DHT22;41019;48.512;9.036;2023-08-07T11:31:14;21.20;61.50
55121;DHT22;41019;48.512;9.036;2023-08-07T11:33:40;21.10;61.80
55121;DHT22;41019;48.512;9.036;2023-08-07T11:36:13;20.90;61.20
55121;DHT22;41019;48.512;9.036;2023-08-07T11:38:40;20.70;61.50
55121;DHT22;41019;48.512;9.036;2023-08-07T11:41:10;20.50;62.60
55121;DHT22;41019;48.512;9.036;2023-08-07T11:43:37;20.40;62.40
55121;DHT22;41019;48.512;9.036;2023-08-07T11:46:05;20.20;63.60
55121;DHT22;41019;48.512;9.036;2023-08-07T11:48:36;20.20;63.80
55121;DHT22;41019;48.512;9.036;2023-08-07T11:51:03;20.40;64.40
55121;DHT22;41019;48.512;9.036;2023-08-07T11:53:35;20.60;63.60
55121;DHT22;41019;48.512;9.036;2023-08-07T11:56:07;20.70;63.30
55121;DHT22;41019;48.512;9.036;2023-08-07T11:58:35;20.80;62.30
55121;DHT22;41019;48.512;9.036;2023-08-07T12:01:36;20.70;62.80
55121;DHT22;41019;48.512;9.036;2023-08-07T12:06:32;20.40;63.30
55121;DHT22;41019;48.512;9.036;2023-08-07T12:08:59;20.20;64.00
55121;DHT22;41019;48.512;9.036;2023-08-07T12:11:25;20.00;63.80
55121;DHT22;41019;48.512;9.036;2023-08-07T12:13:51;19.80;63.70
55121;DHT22;41019;48.512;9.036;2023-08-07T12:16:17;19.60;64.70
55121;DHT22;41019;48.512;9.036;2023-08-07T12:18:51;19.40;64.70
55121;DHT22;41019;48.512;9.036;2023-08-07T12:21:20;19.30;65.10
55121;DHT22;41019;48.512;9.036;2023-08-07T12:23:48;19.20;65.40
55121;DHT22;41019;48.512;9.036;2023-08-07T12:26:14;19.00;65.30
55121;DHT22;41019;48.512;9.036;2023-08-07T12:28:40;18.90;66.00
55121;DHT22;41019;48.512;9.036;2023-08-07T12:31:07;18.90;65.90
55121;DHT22;41019;48.512;9.036;2023-08-07T12:33:33;18.90;66.80
55121;DHT22;41019;48.512;9.036;2023-08-07T12:36:00;19.00;66.80
55121;DHT22;41019;48.512;9.036;2023-08-07T12:38:28;19.10;67.00
55121;DHT22;41019;48.512;9.036;2023-08-07T12:40:54;19.30;66.60
55121;DHT22;41019;48.512;9.036;2023-08-07T12:43:20;19.50;66.30
55121;DHT22;41019;48.512;9.036;2023-08-07T12:45:47;19.70;65.80
55121;DHT22;41019;48.512;9.036;2023-08-07T12:48:13;19.80;64.80
55121;DHT22;41019;48.512;9.036;2023-08-07T12:50:40;19.90;66.50
55121;DHT22;41019;48.512;9.036;2023-08-07T12:53:06;20.00;66.00
55121;DHT22;41019;48.512;9.036;2023-08-07T12:55:32;20.10;65.10
55121;DHT22;41019;48.512;9.036;2023-08-07T12:57:58;20.10;64.90
55121;DHT22;41019;48.512;9.036;2023-08-07T13:00:24;20.10;64.40
55121;DHT22;41019;48.512;9.036;2023-08-07T13:02:51;20.10;66.20
55121;DHT22;41019;48.512;9.036;2023-08-07T13:05:20;20.00;66.60
55121;DHT22;41019;48.512;9.036;2023-08-07T13:07:46;19.80;65.20
55121;DHT22;41019;48.512;9.036;2023-08-07T13:10:14;19.70;65.90
55121;DHT22;41019;48.512;9.036;2023-08-07T13:12:42;19.50;66.70
55121;DHT22;41019;48.512;9.036;2023-08-07T13:15:11;19.50;67.20
55121;DHT22;41019;48.512;9.036;2023-08-07T13:17:39;19.60;67.50
55121;DHT22;41019;48.512;9.036;2023-08-07T13:20:06;19.60;66.60
55121;DHT22;41019;48.512;9.036;2023-08-07T13:22:40;19.50;67.20
55121;DHT22;41019;48.512;9.036;2023-08-07T13:25:11;19.50;67.80
55121;DHT22;41019;48.512;9.036;2023-08-07T13:27:38;19.50;67.90
55121;DHT22;41019;48.512;9.036;2023-08-07T13:30:04;19.40;67.90
55121;DHT22;41019;48.512;9.036;2023-08-07T13:32:31;19.30;68.00
55121;DHT22;41019;48.512;9.036;2023-08-07T13:35:01;19.20;68.90
55121;DHT22;41019;48.512;9.036;2023-08-07T13:37:28;19.20;67.80
55121;DHT22;41019;48.512;9.036;2023-08-07T13:39:53;19.10;68.20
55121;DHT22;41019;48.512;9.036;2023-08-07T13:42:23;19.00;67.50
55121;DHT22;41019;48.512;9.036;2023-08-07T13:44:49;19.00;67.80
55121;DHT22;41019;48.512;9.036;2023-08-07T13:47:14;19.00;67.90
55121;DHT22;41019;48.512;9.036;2023-08-07T13:49:43;19.10;68.20
55121;DHT22;41019;48.512;9.036;2023-08-07T13:52:09;19.10;67.40
55121;DHT22;41019;48.512;9.036;2023-08-07T13:54:35;19.20;67.50
55121;DHT22;41019;48.512;9.036;2023-08-07T13:57:00;19.40;69.30
55121;DHT22;41019;48.512;9.036;2023-08-07T13:59:26;19.80;67.50
55121;DHT22;41019;48.512;9.036;2023-08-07T14:01:52;20.20;68.70
55121;DHT22;41019;48.512;9.036;2023-08-07T14:04:19;20.70;68.20
55121;DHT22;41019;48.512;9.036;2023-08-07T14:06:46;21.10;65.70
55121;DHT22;41019;48.512;9.036;2023-08-07T14:09:12;21.60;65.30
55121;DHT22;41019;48.512;9.036;2023-08-07T14:11:40;21.80;64.80
55121;DHT22;41019;48.512;9.036;2023-08-07T14:14:05;21.80;64.10
55121;DHT22;41019;48.512;9.036;2023-08-07T14:16:31;21.90;64.10
55121;DHT22;41019;48.512;9.036;2023-08-07T14:18:57;21.90;63.30
55121;DHT22;41019;48.512;9.036;2023-08-07T14:21:23;21.90;62.80
55121;DHT22;41019;48.512;9.036;2023-08-07T14:23:50;22.00;64.00
55121;DHT22;41019;48.512;9.036;2023-08-07T14:26:16;22.20;64.40
55121;DHT22;41019;48.512;9.036;2023-08-07T14:28:43;22.40;64.10
55121;DHT22;41019;48.512;9.036;2023-08-07T14:31:10;22.50;61.10
55121;DHT22;41019;48.512;9.036;2023-08-07T14:33:36;22.60;62.30
55121;DHT22;41019;48.512;9.036;2023-08-07T14:36:03;22.90;59.00
55121;DHT22;41019;48.512;9.036;2023-08-07T14:38:29;22.80;60.30
55121;DHT22;41019;48.512;9.036;2023-08-07T14:40:55;22.80;59.20
55121;DHT22;41019;48.512;9.036;2023-08-07T14:43:22;22.40;58.90
55121;DHT22;41019;48.512;9.036;2023-08-07T14:45:48;22.10;60.20
55121;DHT22;41019;48.512;9.036;2023-08-07T14:48:15;21.90;59.20
55121;DHT22;41019;48.512;9.036;2023-08-07T14:50:42;21.70;60.50
55121;DHT22;41019;48.512;9.036;2023-08-07T14:53:08;21.50;60.90
55121;DHT22;41019;48.512;9.036;2023-08-07T14:55:33;21.20;61.50
55121;DHT22;41019;48.512;9.036;2023-08-07T14:58:00;21.00;62.20
55121;DHT22;41019;48.512;9.036;2023-08-07T15:00:25;20.80;63.60
55121;DHT22;41019;48.512;9.036;2023-08-07T15:02:51;20.70;63.90
55121;DHT22;41019;48.512;9.036;2023-08-07T15:05:17;20.50;64.20
55121;DHT22;41019;48.512;9.036;2023-08-07T15:07:45;20.40;65.10
55121;DHT22;41019;48.512;9.036;2023-08-07T15:10:11;20.40;64.30
55121;DHT22;41019;48.512;9.036;2023-08-07T15:12:37;20.30;65.10
55121;DHT22;41019;48.512;9.036;2023-08-07T15:15:03;20.40;65.70
55121;DHT22;41019;48.512;9.036;2023-08-07T15:17:29;20.50;65.30
55121;DHT22;41019;48.512;9.036;2023-08-07T15:19:55;20.50;65.40
55121;DHT22;41019;48.512;9.036;2023-08-07T15:22:20;20.50;65.30
55121;DHT22;41019;48.512;9.036;2023-08-07T15:24:46;20.60;64.80
55121;DHT22;41019;48.512;9.036;2023-08-07T15:27:12;20.70;64.80
55121;DHT22;41019;48.512;9.036;2023-08-07T15:29:38;20.70;63.90
55121;DHT22;41019;48.512;9.036;2023-08-07T15:32:07;20.80;62.40
55121;DHT22;41019;48.512;9.036;2023-08-07T15:34:33;20.90;62.90
55121;DHT22;41019;48.512;9.036;2023-08-07T15:36:59;21.00;65.80
55121;DHT22;41019;48.512;9.036;2023-08-07T15:39:25;21.30;63.60
55121;DHT22;41019;48.512;9.036;2023-08-07T15:41:51;21.30;62.90